Rechercher aéroport 
image banner adimage banner adimage banner ad
image banner ad

KSFO - San Francisco Intl

Situé à San Francisco, United States

ICAO - SFO, IATA - SFO

Données fournies par Airmate  

Information générale

Coordonnées: N37°37'8" W122°22'32"
Élévation : 13 feet MSL.
Variation magnétique : 14° East
Voir autres Aéroports à California

Données opérationnelles

Special qualification required
Heure actuelle UTC:
Heure actuelle locale:
Météo
METAR: KSFO 290756Z 31011KT 10SM FEW005 BKN200 14/13 A2998 RMK AO2 SLP153 T01440128 402330133
TAF: KSFO 290528Z 2906/3012 30010KT P6SM FEW010 FM291000 29005KT P6SM SCT008 FM291700 31007KT P6SM FEW010 FM292200 31019KT P6SM SKC FM300400 30011KT P6SM FEW010 FM301000 29005KT P6SM SCT008
Voir NOTAMs / SUP AIP / TFR affectant cet aéroport [VIEW]
Fréquences de communication: [VIEW]

Pistes:

Identifiant RWYQFULongueur (ft)Largeur (ft)SurfaceLDA (ft)
01R28°8650200ASPH8090
19L208°8650200ASPH8650
01L28°7650200ASPH7010
19R208°7650200ASPH7650
10R118°11381200ASPH10704
28L298°11381200ASPH10275
10L118°11870200ASPH11193
28R298°11870200ASPH11236

Coordonnées de l'aéroport

Adresse: San Francisco United States

Vue satellite de KSFO